sensor_id;sensor_type;location;lat;lon;timestamp;temperature;humidity
56240;DHT22;42154;51.992;5.896;2022-08-07T00:00:42;14.50;93.00
56240;DHT22;42154;51.992;5.896;2022-08-07T00:03:09;14.50;93.10
56240;DHT22;42154;51.992;5.896;2022-08-07T00:05:36;14.50;93.00
56240;DHT22;42154;51.992;5.896;2022-08-07T00:08:01;14.50;93.10
56240;DHT22;42154;51.992;5.896;2022-08-07T00:10:28;14.50;93.20
56240;DHT22;42154;51.992;5.896;2022-08-07T00:12:54;14.40;93.30
56240;DHT22;42154;51.992;5.896;2022-08-07T00:15:20;14.40;93.50
56240;DHT22;42154;51.992;5.896;2022-08-07T00:17:45;14.50;93.50
56240;DHT22;42154;51.992;5.896;2022-08-07T00:20:11;14.40;93.40
56240;DHT22;42154;51.992;5.896;2022-08-07T00:22:37;14.30;93.40
56240;DHT22;42154;51.992;5.896;2022-08-07T00:25:06;14.30;93.50
56240;DHT22;42154;51.992;5.896;2022-08-07T00:27:32;14.30;93.50
56240;DHT22;42154;51.992;5.896;2022-08-07T00:29:57;14.30;93.70
56240;DHT22;42154;51.992;5.896;2022-08-07T00:32:23;14.30;93.70
56240;DHT22;42154;51.992;5.896;2022-08-07T00:34:49;14.20;93.80
56240;DHT22;42154;51.992;5.896;2022-08-07T00:37:15;14.30;93.80
56240;DHT22;42154;51.992;5.896;2022-08-07T00:39:41;14.30;93.90
56240;DHT22;42154;51.992;5.896;2022-08-07T00:42:06;14.20;93.80
56240;DHT22;42154;51.992;5.896;2022-08-07T00:44:33;14.20;94.10
56240;DHT22;42154;51.992;5.896;2022-08-07T00:47:02;14.20;93.90
56240;DHT22;42154;51.992;5.896;2022-08-07T00:49:28;14.20;93.90
56240;DHT22;42154;51.992;5.896;2022-08-07T00:51:54;14.20;93.90
56240;DHT22;42154;51.992;5.896;2022-08-07T00:54:20;14.10;93.90
56240;DHT22;42154;51.992;5.896;2022-08-07T00:56:46;14.20;93.90
56240;DHT22;42154;51.992;5.896;2022-08-07T00:59:12;14.10;93.90
56240;DHT22;42154;51.992;5.896;2022-08-07T01:01:38;14.10;94.00
56240;DHT22;42154;51.992;5.896;2022-08-07T01:04:04;14.10;94.10
56240;DHT22;42154;51.992;5.896;2022-08-07T01:06:30;14.10;94.20
56240;DHT22;42154;51.992;5.896;2022-08-07T01:08:56;14.00;94.20
56240;DHT22;42154;51.992;5.896;2022-08-07T01:11:22;14.00;94.30
56240;DHT22;42154;51.992;5.896;2022-08-07T01:13:48;14.00;94.30
56240;DHT22;42154;51.992;5.896;2022-08-07T01:16:13;14.00;94.30
56240;DHT22;42154;51.992;5.896;2022-08-07T01:18:39;14.00;94.40
56240;DHT22;42154;51.992;5.896;2022-08-07T01:21:09;13.90;94.40
56240;DHT22;42154;51.992;5.896;2022-08-07T01:23:35;13.90;94.40
56240;DHT22;42154;51.992;5.896;2022-08-07T01:26:02;13.90;94.50
56240;DHT22;42154;51.992;5.896;2022-08-07T01:28:28;13.90;94.50
56240;DHT22;42154;51.992;5.896;2022-08-07T01:30:55;13.90;94.60
56240;DHT22;42154;51.992;5.896;2022-08-07T01:33:22;13.80;94.60
56240;DHT22;42154;51.992;5.896;2022-08-07T01:35:50;13.80;94.60
56240;DHT22;42154;51.992;5.896;2022-08-07T01:38:16;13.80;94.60
56240;DHT22;42154;51.992;5.896;2022-08-07T01:40:42;13.70;94.70
56240;DHT22;42154;51.992;5.896;2022-08-07T01:43:08;13.70;94.70
56240;DHT22;42154;51.992;5.896;2022-08-07T01:45:33;13.60;94.80
56240;DHT22;42154;51.992;5.896;2022-08-07T01:48:00;13.60;94.80
56240;DHT22;42154;51.992;5.896;2022-08-07T01:50:27;13.60;94.90
56240;DHT22;42154;51.992;5.896;2022-08-07T01:52:55;13.60;95.00
56240;DHT22;42154;51.992;5.896;2022-08-07T01:55:24;13.60;95.00
56240;DHT22;42154;51.992;5.896;2022-08-07T01:57:52;13.60;95.00
56240;DHT22;42154;51.992;5.896;2022-08-07T02:00:20;13.60;95.00
56240;DHT22;42154;51.992;5.896;2022-08-07T02:05:13;13.50;95.00
56240;DHT22;42154;51.992;5.896;2022-08-07T02:07:42;13.50;95.00
56240;DHT22;42154;51.992;5.896;2022-08-07T02:10:09;13.50;95.00
56240;DHT22;42154;51.992;5.896;2022-08-07T02:12:38;13.40;95.00
56240;DHT22;42154;51.992;5.896;2022-08-07T02:15:08;13.40;95.00
56240;DHT22;42154;51.992;5.896;2022-08-07T02:17:37;13.40;95.10
56240;DHT22;42154;51.992;5.896;2022-08-07T02:20:04;13.40;95.20
56240;DHT22;42154;51.992;5.896;2022-08-07T02:22:30;13.30;95.10
56240;DHT22;42154;51.992;5.896;2022-08-07T02:24:56;13.30;95.10
56240;DHT22;42154;51.992;5.896;2022-08-07T02:27:23;13.30;95.20
56240;DHT22;42154;51.992;5.896;2022-08-07T02:29:50;13.30;95.20
56240;DHT22;42154;51.992;5.896;2022-08-07T02:32:17;13.30;95.30
56240;DHT22;42154;51.992;5.896;2022-08-07T02:34:43;13.20;95.30
56240;DHT22;42154;51.992;5.896;2022-08-07T02:37:09;13.10;95.30
56240;DHT22;42154;51.992;5.896;2022-08-07T02:39:39;13.10;95.30
56240;DHT22;42154;51.992;5.896;2022-08-07T02:42:09;13.10;95.40
56240;DHT22;42154;51.992;5.896;2022-08-07T02:44:35;13.10;95.40
56240;DHT22;42154;51.992;5.896;2022-08-07T02:47:04;13.10;95.50
56240;DHT22;42154;51.992;5.896;2022-08-07T02:49:32;13.00;95.50
56240;DHT22;42154;51.992;5.896;2022-08-07T02:52:00;13.00;95.50
56240;DHT22;42154;51.992;5.896;2022-08-07T02:54:28;13.00;95.60
56240;DHT22;42154;51.992;5.896;2022-08-07T02:56:55;13.00;95.70
56240;DHT22;42154;51.992;5.896;2022-08-07T02:59:24;12.90;95.80
56240;DHT22;42154;51.992;5.896;2022-08-07T03:01:52;12.90;95.90
56240;DHT22;42154;51.992;5.896;2022-08-07T03:04:19;12.90;95.90
56240;DHT22;42154;51.992;5.896;2022-08-07T03:06:45;12.90;95.90
56240;DHT22;42154;51.992;5.896;2022-08-07T03:09:13;12.90;96.00
56240;DHT22;42154;51.992;5.896;2022-08-07T03:11:39;12.90;96.20
56240;DHT22;42154;51.992;5.896;2022-08-07T03:14:07;12.70;96.20
56240;DHT22;42154;51.992;5.896;2022-08-07T03:16:33;12.80;96.30
56240;DHT22;42154;51.992;5.896;2022-08-07T03:19:00;12.70;96.30
56240;DHT22;42154;51.992;5.896;2022-08-07T03:21:25;12.70;96.50
56240;DHT22;42154;51.992;5.896;2022-08-07T03:23:53;12.70;96.60
56240;DHT22;42154;51.992;5.896;2022-08-07T03:26:19;12.70;96.60
56240;DHT22;42154;51.992;5.896;2022-08-07T03:28:48;12.70;96.60
56240;DHT22;42154;51.992;5.896;2022-08-07T03:31:14;12.70;96.60
56240;DHT22;42154;51.992;5.896;2022-08-07T03:33:52;12.70;96.60
56240;DHT22;42154;51.992;5.896;2022-08-07T03:36:19;12.70;96.50
56240;DHT22;42154;51.992;5.896;2022-08-07T03:38:46;12.60;96.50
56240;DHT22;42154;51.992;5.896;2022-08-07T03:41:13;12.60;96.60
56240;DHT22;42154;51.992;5.896;2022-08-07T03:43:39;12.60;96.60
56240;DHT22;42154;51.992;5.896;2022-08-07T03:46:07;12.60;96.70
56240;DHT22;42154;51.992;5.896;2022-08-07T03:48:33;12.60;96.70
56240;DHT22;42154;51.992;5.896;2022-08-07T03:51:01;12.60;96.80
56240;DHT22;42154;51.992;5.896;2022-08-07T03:53:34;12.60;96.80
56240;DHT22;42154;51.992;5.896;2022-08-07T03:56:01;12.60;96.80
56240;DHT22;42154;51.992;5.896;2022-08-07T03:58:28;12.50;96.70
56240;DHT22;42154;51.992;5.896;2022-08-07T04:00:55;12.60;96.70
56240;DHT22;42154;51.992;5.896;2022-08-07T04:03:21;12.60;96.70
56240;DHT22;42154;51.992;5.896;2022-08-07T04:05:49;12.60;96.80
56240;DHT22;42154;51.992;5.896;2022-08-07T04:08:19;12.60;96.80
56240;DHT22;42154;51.992;5.896;2022-08-07T04:10:46;12.60;97.00
56240;DHT22;42154;51.992;5.896;2022-08-07T04:13:13;12.60;97.30
56240;DHT22;42154;51.992;5.896;2022-08-07T04:15:40;12.60;97.00
56240;DHT22;42154;51.992;5.896;2022-08-07T04:18:06;12.60;97.00
56240;DHT22;42154;51.992;5.896;2022-08-07T04:20:32;12.60;97.00
56240;DHT22;42154;51.992;5.896;2022-08-07T04:22:58;12.60;97.20
56240;DHT22;42154;51.992;5.896;2022-08-07T04:25:24;12.60;97.20
56240;DHT22;42154;51.992;5.896;2022-08-07T04:27:50;12.60;97.20
56240;DHT22;42154;51.992;5.896;2022-08-07T04:30:16;12.60;97.20
56240;DHT22;42154;51.992;5.896;2022-08-07T04:32:53;12.70;97.30
56240;DHT22;42154;51.992;5.896;2022-08-07T04:35:21;12.70;97.40
56240;DHT22;42154;51.992;5.896;2022-08-07T04:37:47;12.90;97.60
56240;DHT22;42154;51.992;5.896;2022-08-07T04:40:13;13.60;97.10
56240;DHT22;42154;51.992;5.896;2022-08-07T04:42:41;14.40;96.00
56240;DHT22;42154;51.992;5.896;2022-08-07T04:45:07;15.10;95.50
56240;DHT22;42154;51.992;5.896;2022-08-07T04:47:37;15.70;94.20
56240;DHT22;42154;51.992;5.896;2022-08-07T04:53:20;15.60;93.30
56240;DHT22;42154;51.992;5.896;2022-08-07T04:56:04;15.10;93.70
56240;DHT22;42154;51.992;5.896;2022-08-07T05:01:48;14.40;94.50
56240;DHT22;42154;51.992;5.896;2022-08-07T05:04:01;14.20;94.80
56240;DHT22;42154;51.992;5.896;2022-08-07T05:06:33;14.10;95.10
56240;DHT22;42154;51.992;5.896;2022-08-07T05:09:04;14.00;95.30
56240;DHT22;42154;51.992;5.896;2022-08-07T05:11:44;13.80;95.40
56240;DHT22;42154;51.992;5.896;2022-08-07T05:14:18;13.70;95.50
56240;DHT22;42154;51.992;5.896;2022-08-07T05:16:45;13.70;95.60
56240;DHT22;42154;51.992;5.896;2022-08-07T05:19:14;13.70;95.60
56240;DHT22;42154;51.992;5.896;2022-08-07T05:21:42;13.70;95.80
56240;DHT22;42154;51.992;5.896;2022-08-07T05:24:09;13.60;95.80
56240;DHT22;42154;51.992;5.896;2022-08-07T05:26:36;13.60;95.80
56240;DHT22;42154;51.992;5.896;2022-08-07T05:29:05;14.30;96.00
56240;DHT22;42154;51.992;5.896;2022-08-07T05:31:33;13.60;95.80
56240;DHT22;42154;51.992;5.896;2022-08-07T05:34:08;13.60;95.90
56240;DHT22;42154;51.992;5.896;2022-08-07T05:36:35;13.70;95.80
56240;DHT22;42154;51.992;5.896;2022-08-07T05:39:05;13.70;95.80
56240;DHT22;42154;51.992;5.896;2022-08-07T05:41:32;13.70;95.70
56240;DHT22;42154;51.992;5.896;2022-08-07T05:43:58;13.80;95.70
56240;DHT22;42154;51.992;5.896;2022-08-07T05:46:24;13.90;95.80
56240;DHT22;42154;51.992;5.896;2022-08-07T05:48:50;13.90;95.70
56240;DHT22;42154;51.992;5.896;2022-08-07T05:51:18;14.00;95.60
56240;DHT22;42154;51.992;5.896;2022-08-07T05:53:45;14.10;95.60
56240;DHT22;42154;51.992;5.896;2022-08-07T05:56:11;14.10;95.50
56240;DHT22;42154;51.992;5.896;2022-08-07T05:58:45;14.20;95.40
56240;DHT22;42154;51.992;5.896;2022-08-07T06:01:13;14.20;95.30
56240;DHT22;42154;51.992;5.896;2022-08-07T06:03:44;14.30;95.30
56240;DHT22;42154;51.992;5.896;2022-08-07T06:06:11;14.30;95.20
56240;DHT22;42154;51.992;5.896;2022-08-07T06:08:40;14.40;95.10
56240;DHT22;42154;51.992;5.896;2022-08-07T06:11:06;14.50;95.20
56240;DHT22;42154;51.992;5.896;2022-08-07T06:13:34;14.60;95.20
56240;DHT22;42154;51.992;5.896;2022-08-07T06:15:59;14.70;95.20
56240;DHT22;42154;51.992;5.896;2022-08-07T06:18:27;14.80;95.20
56240;DHT22;42154;51.992;5.896;2022-08-07T06:20:54;14.80;95.10
56240;DHT22;42154;51.992;5.896;2022-08-07T06:23:20;14.90;95.10
56240;DHT22;42154;51.992;5.896;2022-08-07T06:25:46;15.10;95.10
56240;DHT22;42154;51.992;5.896;2022-08-07T06:28:12;15.10;95.10
56240;DHT22;42154;51.992;5.896;2022-08-07T06:30:38;15.20;95.00
56240;DHT22;42154;51.992;5.896;2022-08-07T06:33:15;15.40;94.90
56240;DHT22;42154;51.992;5.896;2022-08-07T06:35:41;15.40;94.70
56240;DHT22;42154;51.992;5.896;2022-08-07T06:38:07;15.60;94.60
56240;DHT22;42154;51.992;5.896;2022-08-07T06:40:46;15.70;94.60
56240;DHT22;42154;51.992;5.896;2022-08-07T06:43:14;15.80;94.50
56240;DHT22;42154;51.992;5.896;2022-08-07T06:45:52;16.00;94.50
56240;DHT22;42154;51.992;5.896;2022-08-07T06:48:19;16.10;94.30
56240;DHT22;42154;51.992;5.896;2022-08-07T06:50:47;16.20;94.20
56240;DHT22;42154;51.992;5.896;2022-08-07T06:53:13;16.30;94.10
56240;DHT22;42154;51.992;5.896;2022-08-07T06:55:39;16.40;94.10
56240;DHT22;42154;51.992;5.896;2022-08-07T06:58:08;16.50;94.00
56240;DHT22;42154;51.992;5.896;2022-08-07T07:00:40;16.60;93.90
56240;DHT22;42154;51.992;5.896;2022-08-07T07:03:08;16.70;93.80
56240;DHT22;42154;51.992;5.896;2022-08-07T07:05:35;16.80;94.00
56240;DHT22;42154;51.992;5.896;2022-08-07T07:08:01;16.90;93.60
56240;DHT22;42154;51.992;5.896;2022-08-07T07:10:32;17.00;93.50
56240;DHT22;42154;51.992;5.896;2022-08-07T07:13:13;17.10;93.60
56240;DHT22;42154;51.992;5.896;2022-08-07T07:15:45;17.20;93.30
56240;DHT22;42154;51.992;5.896;2022-08-07T07:18:13;17.30;93.10
56240;DHT22;42154;51.992;5.896;2022-08-07T07:20:43;17.40;93.00
56240;DHT22;42154;51.992;5.896;2022-08-07T07:23:11;17.50;92.90
56240;DHT22;42154;51.992;5.896;2022-08-07T07:25:38;17.60;92.80
56240;DHT22;42154;51.992;5.896;2022-08-07T07:30:38;17.80;92.40
56240;DHT22;42154;51.992;5.896;2022-08-07T07:33:04;17.80;92.10
56240;DHT22;42154;51.992;5.896;2022-08-07T07:35:30;17.90;91.80
56240;DHT22;42154;51.992;5.896;2022-08-07T07:37:57;18.00;91.80
56240;DHT22;42154;51.992;5.896;2022-08-07T07:40:24;18.00;91.60
56240;DHT22;42154;51.992;5.896;2022-08-07T07:42:52;18.10;91.00
56240;DHT22;42154;51.992;5.896;2022-08-07T07:45:19;18.20;91.00
56240;DHT22;42154;51.992;5.896;2022-08-07T07:47:45;18.30;90.90
56240;DHT22;42154;51.992;5.896;2022-08-07T07:50:12;18.40;90.70
56240;DHT22;42154;51.992;5.896;2022-08-07T07:52:38;18.50;90.70
56240;DHT22;42154;51.992;5.896;2022-08-07T07:55:05;18.50;90.60
56240;DHT22;42154;51.992;5.896;2022-08-07T07:57:32;18.70;90.40
56240;DHT22;42154;51.992;5.896;2022-08-07T07:59:58;18.70;90.20
56240;DHT22;42154;51.992;5.896;2022-08-07T08:02:24;18.80;89.40
56240;DHT22;42154;51.992;5.896;2022-08-07T08:04:51;18.90;89.30
56240;DHT22;42154;51.992;5.896;2022-08-07T08:07:18;19.00;89.20
56240;DHT22;42154;51.992;5.896;2022-08-07T08:09:44;19.10;88.90
56240;DHT22;42154;51.992;5.896;2022-08-07T08:12:11;19.10;88.60
56240;DHT22;42154;51.992;5.896;2022-08-07T08:14:38;19.20;87.70
56240;DHT22;42154;51.992;5.896;2022-08-07T08:17:04;19.30;87.10
56240;DHT22;42154;51.992;5.896;2022-08-07T08:19:31;19.30;87.10
56240;DHT22;42154;51.992;5.896;2022-08-07T08:21:57;19.40;87.00
56240;DHT22;42154;51.992;5.896;2022-08-07T08:24:42;19.50;86.60
56240;DHT22;42154;51.992;5.896;2022-08-07T08:27:27;19.60;86.30
56240;DHT22;42154;51.992;5.896;2022-08-07T08:29:57;19.70;85.50
56240;DHT22;42154;51.992;5.896;2022-08-07T08:32:26;19.90;85.00
56240;DHT22;42154;51.992;5.896;2022-08-07T08:34:52;20.00;84.80
56240;DHT22;42154;51.992;5.896;2022-08-07T08:37:19;20.00;83.90
56240;DHT22;42154;51.992;5.896;2022-08-07T08:39:45;20.10;83.40
56240;DHT22;42154;51.992;5.896;2022-08-07T08:42:14;20.20;82.90
56240;DHT22;42154;51.992;5.896;2022-08-07T08:45:04;20.30;82.20
56240;DHT22;42154;51.992;5.896;2022-08-07T08:52:34;20.50;80.80
56240;DHT22;42154;51.992;5.896;2022-08-07T08:55:13;20.60;80.70
56240;DHT22;42154;51.992;5.896;2022-08-07T08:57:43;20.60;79.90
56240;DHT22;42154;51.992;5.896;2022-08-07T09:00:09;20.80;80.10
56240;DHT22;42154;51.992;5.896;2022-08-07T09:10:22;21.30;78.50
56240;DHT22;42154;51.992;5.896;2022-08-07T09:20:49;21.70;74.20
56240;DHT22;42154;51.992;5.896;2022-08-07T09:28:38;21.70;74.20
56240;DHT22;42154;51.992;5.896;2022-08-07T09:31:05;21.70;72.00
56240;DHT22;42154;51.992;5.896;2022-08-07T09:51:46;22.40;68.10
56240;DHT22;42154;51.992;5.896;2022-08-07T09:54:16;22.40;69.20
56240;DHT22;42154;51.992;5.896;2022-08-07T10:02:16;22.60;68.50
56240;DHT22;42154;51.992;5.896;2022-08-07T10:07:17;22.60;68.10
56240;DHT22;42154;51.992;5.896;2022-08-07T10:12:21;22.60;66.70
56240;DHT22;42154;51.992;5.896;2022-08-07T10:26:06;23.00;64.20
56240;DHT22;42154;51.992;5.896;2022-08-07T10:28:49;23.00;64.50
56240;DHT22;42154;51.992;5.896;2022-08-07T10:34:07;23.20;63.10
56240;DHT22;42154;51.992;5.896;2022-08-07T10:36:45;23.20;62.50
56240;DHT22;42154;51.992;5.896;2022-08-07T10:41:39;23.30;62.30
56240;DHT22;42154;51.992;5.896;2022-08-07T10:44:19;23.30;62.00
56240;DHT22;42154;51.992;5.896;2022-08-07T10:46:52;23.30;61.10
56240;DHT22;42154;51.992;5.896;2022-08-07T10:51:49;23.50;61.10
56240;DHT22;42154;51.992;5.896;2022-08-07T11:04:45;24.20;59.60
56240;DHT22;42154;51.992;5.896;2022-08-07T11:09:46;24.50;58.00
56240;DHT22;42154;51.992;5.896;2022-08-07T11:12:17;24.50;58.40
56240;DHT22;42154;51.992;5.896;2022-08-07T11:14:53;24.40;58.70
56240;DHT22;42154;51.992;5.896;2022-08-07T11:17:25;24.10;58.90
56240;DHT22;42154;51.992;5.896;2022-08-07T11:19:54;24.10;59.80
56240;DHT22;42154;51.992;5.896;2022-08-07T11:22:30;24.00;59.40
56240;DHT22;42154;51.992;5.896;2022-08-07T11:27:32;23.70;60.00
56240;DHT22;42154;51.992;5.896;2022-08-07T11:30:02;23.60;59.80
56240;DHT22;42154;51.992;5.896;2022-08-07T11:32:36;23.60;60.10
56240;DHT22;42154;51.992;5.896;2022-08-07T11:58:05;25.00;56.50
56240;DHT22;42154;51.992;5.896;2022-08-07T12:00:39;24.90;56.60
56240;DHT22;42154;51.992;5.896;2022-08-07T12:08:35;24.70;57.60
56240;DHT22;42154;51.992;5.896;2022-08-07T12:11:04;24.80;57.30
56240;DHT22;42154;51.992;5.896;2022-08-07T12:15:58;25.00;56.20
56240;DHT22;42154;51.992;5.896;2022-08-07T12:18:50;25.20;56.30
56240;DHT22;42154;51.992;5.896;2022-08-07T12:23:56;25.60;55.60
56240;DHT22;42154;51.992;5.896;2022-08-07T12:26:43;25.60;55.50
56240;DHT22;42154;51.992;5.896;2022-08-07T12:29:22;25.50;54.60
56240;DHT22;42154;51.992;5.896;2022-08-07T12:31:52;25.20;55.10
56240;DHT22;42154;51.992;5.896;2022-08-07T12:34:21;25.20;55.90
56240;DHT22;42154;51.992;5.896;2022-08-07T12:36:48;25.30;56.10
56240;DHT22;42154;51.992;5.896;2022-08-07T12:39:15;25.30;55.20
56240;DHT22;42154;51.992;5.896;2022-08-07T12:41:43;25.30;55.70
56240;DHT22;42154;51.992;5.896;2022-08-07T12:44:09;25.30;55.20
56240;DHT22;42154;51.992;5.896;2022-08-07T12:46:45;25.30;55.70
56240;DHT22;42154;51.992;5.896;2022-08-07T12:49:18;25.40;55.40
56240;DHT22;42154;51.992;5.896;2022-08-07T12:51:47;25.40;55.70
56240;DHT22;42154;51.992;5.896;2022-08-07T12:54:21;25.40;55.40
56240;DHT22;42154;51.992;5.896;2022-08-07T12:56:50;25.60;55.80
56240;DHT22;42154;51.992;5.896;2022-08-07T12:59:17;25.80;54.00
56240;DHT22;42154;51.992;5.896;2022-08-07T13:04:16;25.70;52.70
56240;DHT22;42154;51.992;5.896;2022-08-07T13:22:54;25.60;54.70
56240;DHT22;42154;51.992;5.896;2022-08-07T13:27:52;25.60;55.00
56240;DHT22;42154;51.992;5.896;2022-08-07T13:30:19;25.60;55.10
56240;DHT22;42154;51.992;5.896;2022-08-07T13:35:23;25.60;55.40
56240;DHT22;42154;51.992;5.896;2022-08-07T13:42:53;25.90;54.90
56240;DHT22;42154;51.992;5.896;2022-08-07T13:45:20;25.90;53.40
56240;DHT22;42154;51.992;5.896;2022-08-07T13:47:47;25.90;53.80
56240;DHT22;42154;51.992;5.896;2022-08-07T13:50:15;25.80;53.80
56240;DHT22;42154;51.992;5.896;2022-08-07T13:52:42;25.60;53.50
56240;DHT22;42154;51.992;5.896;2022-08-07T13:55:19;25.60;53.50
56240;DHT22;42154;51.992;5.896;2022-08-07T13:57:45;25.70;52.90
56240;DHT22;42154;51.992;5.896;2022-08-07T14:00:13;25.80;52.10
56240;DHT22;42154;51.992;5.896;2022-08-07T14:02:40;25.90;52.40
56240;DHT22;42154;51.992;5.896;2022-08-07T14:05:08;26.00;52.00
56240;DHT22;42154;51.992;5.896;2022-08-07T14:10:05;26.00;52.40
56240;DHT22;42154;51.992;5.896;2022-08-07T14:12:39;25.80;52.10
56240;DHT22;42154;51.992;5.896;2022-08-07T14:15:17;25.70;52.00
56240;DHT22;42154;51.992;5.896;2022-08-07T14:17:44;25.70;52.20
56240;DHT22;42154;51.992;5.896;2022-08-07T14:20:14;25.80;52.60
56240;DHT22;42154;51.992;5.896;2022-08-07T14:22:40;25.90;52.60
56240;DHT22;42154;51.992;5.896;2022-08-07T14:25:08;26.00;52.60
56240;DHT22;42154;51.992;5.896;2022-08-07T14:27:35;26.10;52.40
56240;DHT22;42154;51.992;5.896;2022-08-07T14:30:08;26.30;52.20
56240;DHT22;42154;51.992;5.896;2022-08-07T14:32:38;26.30;51.60
56240;DHT22;42154;51.992;5.896;2022-08-07T14:35:09;26.30;51.70
56240;DHT22;42154;51.992;5.896;2022-08-07T14:37:35;26.50;51.70
56240;DHT22;42154;51.992;5.896;2022-08-07T14:40:01;26.70;51.70
56240;DHT22;42154;51.992;5.896;2022-08-07T14:42:27;26.90;51.00
56240;DHT22;42154;51.992;5.896;2022-08-07T14:44:54;26.90;50.80
56240;DHT22;42154;51.992;5.896;2022-08-07T14:47:22;26.90;51.00
56240;DHT22;42154;51.992;5.896;2022-08-07T14:49:49;26.90;51.10
56240;DHT22;42154;51.992;5.896;2022-08-07T14:52:17;26.90;51.50
56240;DHT22;42154;51.992;5.896;2022-08-07T14:54:43;26.90;51.50
56240;DHT22;42154;51.992;5.896;2022-08-07T14:57:11;26.90;51.50
56240;DHT22;42154;51.992;5.896;2022-08-07T14:59:37;27.00;51.90
56240;DHT22;42154;51.992;5.896;2022-08-07T15:02:11;27.00;51.90
56240;DHT22;42154;51.992;5.896;2022-08-07T15:04:41;27.00;51.60
56240;DHT22;42154;51.992;5.896;2022-08-07T15:07:09;27.00;51.80
56240;DHT22;42154;51.992;5.896;2022-08-07T15:09:39;27.10;52.20
56240;DHT22;42154;51.992;5.896;2022-08-07T15:12:06;27.10;52.50
56240;DHT22;42154;51.992;5.896;2022-08-07T15:14:33;26.90;52.90
56240;DHT22;42154;51.992;5.896;2022-08-07T15:17:09;26.60;53.40
56240;DHT22;42154;51.992;5.896;2022-08-07T15:19:36;26.40;53.80
56240;DHT22;42154;51.992;5.896;2022-08-07T15:22:03;26.00;54.20
56240;DHT22;42154;51.992;5.896;2022-08-07T15:24:34;25.80;54.60
56240;DHT22;42154;51.992;5.896;2022-08-07T15:27:09;25.60;54.80
56240;DHT22;42154;51.992;5.896;2022-08-07T15:29:40;25.70;55.30
56240;DHT22;42154;51.992;5.896;2022-08-07T15:32:06;25.70;55.10
56240;DHT22;42154;51.992;5.896;2022-08-07T15:34:36;25.90;54.60
56240;DHT22;42154;51.992;5.896;2022-08-07T15:37:03;26.00;54.20
56240;DHT22;42154;51.992;5.896;2022-08-07T15:39:30;26.10;53.60
56240;DHT22;42154;51.992;5.896;2022-08-07T15:41:59;26.30;53.80
56240;DHT22;42154;51.992;5.896;2022-08-07T15:44:26;26.40;52.60
56240;DHT22;42154;51.992;5.896;2022-08-07T15:46:58;26.40;53.00
56240;DHT22;42154;51.992;5.896;2022-08-07T15:49:28;26.60;52.90
56240;DHT22;42154;51.992;5.896;2022-08-07T15:51:54;26.80;52.90
56240;DHT22;42154;51.992;5.896;2022-08-07T15:54:20;26.80;52.20
56240;DHT22;42154;51.992;5.896;2022-08-07T15:56:47;26.80;51.70
56240;DHT22;42154;51.992;5.896;2022-08-07T15:59:13;26.70;51.30
56240;DHT22;42154;51.992;5.896;2022-08-07T16:01:49;26.60;51.20
56240;DHT22;42154;51.992;5.896;2022-08-07T16:04:15;26.60;50.70
56240;DHT22;42154;51.992;5.896;2022-08-07T16:06:44;26.50;51.00
56240;DHT22;42154;51.992;5.896;2022-08-07T16:09:19;26.30;50.40
56240;DHT22;42154;51.992;5.896;2022-08-07T16:14:18;25.90;51.00
56240;DHT22;42154;51.992;5.896;2022-08-07T16:25:02;25.50;51.40
56240;DHT22;42154;51.992;5.896;2022-08-07T16:27:32;25.60;50.90
56240;DHT22;42154;51.992;5.896;2022-08-07T16:30:08;25.60;50.20
56240;DHT22;42154;51.992;5.896;2022-08-07T16:32:37;25.70;50.80
56240;DHT22;42154;51.992;5.896;2022-08-07T16:35:14;25.80;50.80
56240;DHT22;42154;51.992;5.896;2022-08-07T16:47:42;25.50;50.30
56240;DHT22;42154;51.992;5.896;2022-08-07T16:53:28;25.40;51.20
56240;DHT22;42154;51.992;5.896;2022-08-07T16:58:31;25.30;52.00
56240;DHT22;42154;51.992;5.896;2022-08-07T17:09:09;25.10;52.30
56240;DHT22;42154;51.992;5.896;2022-08-07T17:11:47;25.10;52.40
56240;DHT22;42154;51.992;5.896;2022-08-07T17:14:22;25.10;52.60
56240;DHT22;42154;51.992;5.896;2022-08-07T17:16:50;25.10;53.00
56240;DHT22;42154;51.992;5.896;2022-08-07T17:19:38;25.10;52.80
56240;DHT22;42154;51.992;5.896;2022-08-07T17:22:13;25.10;53.00
56240;DHT22;42154;51.992;5.896;2022-08-07T17:27:21;25.00;53.20
56240;DHT22;42154;51.992;5.896;2022-08-07T17:32:38;25.10;52.60
56240;DHT22;42154;51.992;5.896;2022-08-07T17:35:06;25.10;52.30
56240;DHT22;42154;51.992;5.896;2022-08-07T17:37:34;24.90;52.70
56240;DHT22;42154;51.992;5.896;2022-08-07T17:40:04;24.80;52.70
56240;DHT22;42154;51.992;5.896;2022-08-07T17:44:56;24.70;53.30
56240;DHT22;42154;51.992;5.896;2022-08-07T17:50:17;24.70;53.40
56240;DHT22;42154;51.992;5.896;2022-08-07T17:53:04;24.80;53.40
56240;DHT22;42154;51.992;5.896;2022-08-07T17:55:36;24.60;53.80
56240;DHT22;42154;51.992;5.896;2022-08-07T17:58:07;24.60;53.90
56240;DHT22;42154;51.992;5.896;2022-08-07T18:00:33;24.80;54.10
56240;DHT22;42154;51.992;5.896;2022-08-07T18:03:00;24.80;54.10
56240;DHT22;42154;51.992;5.896;2022-08-07T18:08:07;24.80;54.10
56240;DHT22;42154;51.992;5.896;2022-08-07T18:10:47;24.80;54.30
56240;DHT22;42154;51.992;5.896;2022-08-07T18:16:01;24.80;54.40
56240;DHT22;42154;51.992;5.896;2022-08-07T18:18:30;24.70;53.90
56240;DHT22;42154;51.992;5.896;2022-08-07T18:20:59;24.60;54.30
56240;DHT22;42154;51.992;5.896;2022-08-07T18:23:41;24.60;54.60
56240;DHT22;42154;51.992;5.896;2022-08-07T18:26:11;24.60;54.80
56240;DHT22;42154;51.992;5.896;2022-08-07T18:28:54;24.60;54.50
56240;DHT22;42154;51.992;5.896;2022-08-07T18:34:16;24.60;54.70
56240;DHT22;42154;51.992;5.896;2022-08-07T18:36:52;24.60;54.90
56240;DHT22;42154;51.992;5.896;2022-08-07T18:41:50;24.70;55.20
56240;DHT22;42154;51.992;5.896;2022-08-07T18:49:21;24.60;55.40
56240;DHT22;42154;51.992;5.896;2022-08-07T18:56:49;24.50;56.10
56240;DHT22;42154;51.992;5.896;2022-08-07T19:09:55;24.10;57.80
56240;DHT22;42154;51.992;5.896;2022-08-07T19:13:05;23.90;58.10
56240;DHT22;42154;51.992;5.896;2022-08-07T19:15:19;23.80;58.50
56240;DHT22;42154;51.992;5.896;2022-08-07T19:17:55;23.70;58.80
56240;DHT22;42154;51.992;5.896;2022-08-07T19:20:43;23.60;59.00
56240;DHT22;42154;51.992;5.896;2022-08-07T19:23:22;23.50;59.30
56240;DHT22;42154;51.992;5.896;2022-08-07T19:25:51;23.40;59.80
56240;DHT22;42154;51.992;5.896;2022-08-07T19:28:20;23.40;60.00
56240;DHT22;42154;51.992;5.896;2022-08-07T19:30:46;23.30;60.10
56240;DHT22;42154;51.992;5.896;2022-08-07T19:33:14;23.20;60.40
56240;DHT22;42154;51.992;5.896;2022-08-07T19:35:41;23.10;60.60
56240;DHT22;42154;51.992;5.896;2022-08-07T19:38:09;23.00;60.90
56240;DHT22;42154;51.992;5.896;2022-08-07T19:40:36;22.90;61.20
56240;DHT22;42154;51.992;5.896;2022-08-07T19:43:07;22.70;61.70